Time;durP1;ratioP1;P1;durP2;ratioP2;P2;SDS_P1;SDS_P2;PMS_P1;PMS_P2;Temp;Humidity;BMP_temperature;BMP_pressure;BME280_temperature;BME280_humidity;BME280_pressure;Samples;Min_cycle;Max_cycle;Signal;HPM_P1;HPM_P2
2021/12/16 00:03:32;;;;;;;24.45;15.65;;;7.10;99.90;;;;;;5073812;28;20236;-80
2021/12/16 00:06:44;;;;;;;23.73;15.23;;;7.10;99.90;;;;;;5072995;28;20561;-80
2021/12/16 00:09:09;;;;;;;21.45;13.50;;;7.00;99.90;;;;;;5069464;28;20214;-81
2021/12/16 00:31:17;;;;;;;19.67;12.90;;;7.10;99.90;;;;;;5058505;28;20205;-81
2021/12/16 00:33:46;;;;;;;19.75;12.90;;;7.20;99.90;;;;;;5058616;28;20675;-81
2021/12/16 00:36:15;;;;;;;17.98;11.75;;;7.20;99.90;;;;;;5061953;28;20210;-81
2021/12/16 00:38:43;;;;;;;18.42;11.65;;;7.10;99.90;;;;;;5061095;28;20305;-81
2021/12/16 00:41:11;;;;;;;23.63;14.23;;;7.00;99.90;;;;;;5062126;28;20219;-81
2021/12/16 00:43:44;;;;;;;18.08;12.45;;;7.10;99.90;;;;;;5061979;28;20199;-80
2021/12/16 00:46:27;;;;;;;20.25;13.65;;;7.10;99.90;;;;;;5061540;28;20214;-80
2021/12/16 00:49:05;;;;;;;18.17;12.43;;;7.10;99.90;;;;;;5065423;28;20294;-81
2021/12/16 00:54:18;;;;;;;20.10;12.75;;;7.30;99.90;;;;;;5062352;28;20337;-81
2021/12/16 00:56:50;;;;;;;21.33;13.65;;;7.20;99.90;;;;;;5064339;28;20704;-81
2021/12/16 00:59:19;;;;;;;19.98;12.85;;;7.20;99.90;;;;;;5071586;28;20255;-81
2021/12/16 01:01:54;;;;;;;21.30;13.25;;;7.10;99.90;;;;;;5062682;28;20211;-82
2021/12/16 01:07:38;;;;;;;20.10;14.07;;;7.10;99.90;;;;;;5059923;28;20222;-82
2021/12/16 01:35:05;;;;;;;17.02;11.85;;;6.90;99.90;;;;;;5044666;28;20276;-86
2021/12/16 01:40:33;;;;;;;16.33;11.77;;;7.00;99.90;;;;;;5051756;28;20213;-85
2021/12/16 01:46:17;;;;;;;21.63;12.32;;;7.00;99.90;;;;;;5052133;28;20182;-86
2021/12/16 01:51:33;;;;;;;20.85;13.27;;;7.10;99.90;;;;;;5039785;28;20199;-87
2021/12/16 01:54:34;;;;;;;17.58;11.77;;;6.80;99.90;;;;;;5043118;28;20765;-86
2021/12/16 01:57:10;;;;;;;21.35;13.55;;;7.20;99.90;;;;;;5043776;28;20250;-86
2021/12/16 01:59:40;;;;;;;18.65;13.35;;;7.10;99.90;;;;;;5044036;28;20219;-87
2021/12/16 02:02:17;;;;;;;21.20;13.57;;;7.10;99.90;;;;;;5045977;28;20208;-86
2021/12/16 02:05:07;;;;;;;26.80;13.88;;;6.90;99.90;;;;;;5045415;28;20309;-86
2021/12/16 02:07:50;;;;;;;20.75;14.02;;;7.00;99.90;;;;;;5044111;28;20578;-87
2021/12/16 02:10:22;;;;;;;19.73;13.55;;;6.60;99.90;;;;;;5044960;28;20187;-86
2021/12/16 02:12:59;;;;;;;21.55;14.23;;;7.10;99.90;;;;;;5045731;28;20734;-85
2021/12/16 02:29:25;;;;;;;19.77;13.10;;;6.70;99.90;;;;;;5061245;28;20257;-83
2021/12/16 02:31:58;;;;;;;18.60;12.73;;;7.10;99.90;;;;;;5058499;28;20206;-87
2021/12/16 02:34:42;;;;;;;16.70;10.98;;;7.20;99.90;;;;;;5060061;28;20211;-86
2021/12/16 02:37:17;;;;;;;16.70;11.90;;;6.90;99.90;;;;;;5059199;28;20196;-87
2021/12/16 02:39:45;;;;;;;18.50;12.18;;;7.00;99.90;;;;;;5051788;28;20191;-85
2021/12/16 02:42:18;;;;;;;16.40;11.23;;;7.40;99.90;;;;;;5049990;28;20207;-86
2021/12/16 02:50:12;;;;;;;20.08;13.30;;;6.80;99.90;;;;;;5053600;28;20191;-86
2021/12/16 02:52:41;;;;;;;20.00;12.45;;;7.30;99.90;;;;;;5054880;28;20246;-86
2021/12/16 02:55:12;;;;;;;16.85;12.20;;;7.10;99.90;;;;;;5054371;28;20286;-87
2021/12/16 02:57:46;;;;;;;19.52;13.75;;;7.10;99.90;;;;;;5053585;28;20294;-87
2021/12/16 03:00:15;;;;;;;19.02;13.85;;;7.10;99.90;;;;;;5050623;28;20195;-86
2021/12/16 03:02:46;;;;;;;19.30;12.70;;;7.10;99.90;;;;;;5050491;28;20598;-86
2021/12/16 03:05:13;;;;;;;20.35;13.75;;;7.10;99.90;;;;;;5051936;28;20625;-86
2021/12/16 03:07:41;;;;;;;20.38;13.20;;;7.10;99.90;;;;;;5054187;28;20230;-87
2021/12/16 03:13:01;;;;;;;20.50;13.80;;;7.00;99.90;;;;;;5049912;28;20664;-86
2021/12/16 03:15:48;;;;;;;20.67;13.52;;;7.10;99.90;;;;;;5051008;28;20249;-86
2021/12/16 03:18:24;;;;;;;21.10;13.90;;;7.20;99.90;;;;;;5048745;28;20314;-87
2021/12/16 03:20:55;;;;;;;21.63;15.27;;;6.50;99.90;;;;;;5049710;28;20187;-85
2021/12/16 03:23:39;;;;;;;19.60;13.20;;;6.80;99.90;;;;;;5053082;28;20636;-87
2021/12/16 03:26:38;;;;;;;19.92;12.70;;;7.30;99.90;;;;;;5052447;28;20202;-88
2021/12/16 03:32:16;;;;;;;20.67;13.10;;;6.70;99.90;;;;;;5008443;28;20193;-87
2021/12/16 03:34:56;;;;;;;23.17;14.02;;;6.70;99.90;;;;;;5007370;28;20248;-87
2021/12/16 03:37:24;;;;;;;23.20;14.13;;;7.30;99.90;;;;;;5033809;28;20330;-87
2021/12/16 03:39:56;;;;;;;19.85;13.10;;;7.20;99.90;;;;;;5048650;28;20208;-87
2021/12/16 03:42:26;;;;;;;19.65;13.18;;;6.80;99.90;;;;;;5051962;28;20219;-86
2021/12/16 03:44:58;;;;;;;23.42;14.23;;;7.10;99.90;;;;;;5050402;28;20187;-86
2021/12/16 03:47:34;;;;;;;23.00;13.50;;;6.90;99.90;;;;;;5049694;28;20290;-86
2021/12/16 03:50:04;;;;;;;20.52;13.45;;;7.10;99.90;;;;;;5049095;28;20191;-86
2021/12/16 03:52:31;;;;;;;20.48;12.60;;;6.80;99.90;;;;;;5047998;28;20211;-87
2021/12/16 03:55:00;;;;;;;21.15;13.68;;;7.10;99.90;;;;;;5047935;28;20229;-86
2021/12/16 03:57:30;;;;;;;20.17;13.52;;;7.20;99.90;;;;;;5053786;28;20250;-85
2021/12/16 03:59:58;;;;;;;23.70;14.93;;;7.00;99.90;;;;;;5044507;28;20207;-84
2021/12/16 04:02:29;;;;;;;22.42;13.95;;;7.10;99.90;;;;;;5042937;28;20204;-86
2021/12/16 04:04:56;;;;;;;19.02;12.73;;;7.10;99.90;;;;;;5042879;28;20652;-86
2021/12/16 04:07:28;;;;;;;23.85;14.20;;;7.10;99.90;;;;;;5046371;28;20229;-85
2021/12/16 04:09:55;;;;;;;20.25;14.73;;;7.20;99.90;;;;;;5047946;28;20192;-86
2021/12/16 04:12:26;;;;;;;23.35;15.00;;;7.00;99.90;;;;;;5049543;28;20214;-87
2021/12/16 04:14:57;;;;;;;23.08;14.68;;;6.70;99.90;;;;;;5046755;28;20211;-86
2021/12/16 04:17:25;;;;;;;21.77;14.25;;;6.80;99.90;;;;;;5047732;28;20234;-87
2021/12/16 04:20:08;;;;;;;23.40;13.55;;;7.20;99.90;;;;;;5048715;28;20205;-86
2021/12/16 04:22:42;;;;;;;21.67;13.60;;;7.00;99.90;;;;;;5047483;28;20630;-86
2021/12/16 04:25:11;;;;;;;22.92;14.10;;;7.10;99.90;;;;;;5052266;28;20191;-87
2021/12/16 04:27:41;;;;;;;23.55;14.40;;;7.20;99.90;;;;;;5054624;28;20219;-88
2021/12/16 04:30:10;;;;;;;23.33;14.57;;;7.30;99.90;;;;;;5050478;28;20270;-87
2021/12/16 04:32:37;;;;;;;26.05;14.77;;;7.00;99.90;;;;;;5045801;28;20214;-87
2021/12/16 04:35:05;;;;;;;24.40;15.23;;;7.00;99.90;;;;;;5044045;28;20229;-89
2021/12/16 04:37:31;;;;;;;26.23;15.50;;;7.10;99.90;;;;;;5043737;28;20229;-87
2021/12/16 04:40:00;;;;;;;25.73;15.30;;;7.10;99.90;;;;;;5052589;28;20229;-87
2021/12/16 04:42:27;;;;;;;22.38;14.93;;;7.10;99.90;;;;;;5044194;28;20633;-89
2021/12/16 04:44:55;;;;;;;26.75;16.85;;;6.90;99.90;;;;;;5041595;28;20213;-88
2021/12/16 04:47:23;;;;;;;24.45;14.85;;;6.80;99.90;;;;;;5042340;28;20314;-88
2021/12/16 04:49:50;;;;;;;24.70;15.95;;;7.30;99.90;;;;;;5046470;28;20283;-86
2021/12/16 04:52:18;;;;;;;23.17;14.40;;;7.20;99.90;;;;;;5053848;28;20199;-88
2021/12/16 04:54:46;;;;;;;27.52;16.23;;;7.30;99.90;;;;;;5051264;28;20265;-87
2021/12/16 04:57:14;;;;;;;25.27;15.32;;;6.90;99.90;;;;;;5055787;28;20235;-89
2021/12/16 04:59:41;;;;;;;31.02;17.92;;;7.00;99.90;;;;;;5050189;28;20293;-88
2021/12/16 05:02:13;;;;;;;32.17;18.92;;;7.10;99.90;;;;;;5044268;28;20690;-88
2021/12/16 05:04:41;;;;;;;26.45;16.83;;;6.90;99.90;;;;;;5043085;28;20271;-88
2021/12/16 05:07:09;;;;;;;27.55;17.50;;;7.10;99.90;;;;;;5043315;28;20218;-88
2021/12/16 05:10:03;;;;;;;26.30;17.30;;;7.10;99.90;;;;;;5053849;28;20239;-88
2021/12/16 05:12:34;;;;;;;25.25;16.15;;;7.10;99.90;;;;;;5046502;28;20226;-88
2021/12/16 05:15:01;;;;;;;28.75;16.52;;;6.90;99.90;;;;;;5043607;28;20309;-89
2021/12/16 05:17:33;;;;;;;30.88;15.75;;;6.80;99.90;;;;;;5046603;28;20235;-88
2021/12/16 05:20:07;;;;;;;27.85;17.20;;;6.80;99.90;;;;;;5047321;28;20213;-87
2021/12/16 05:25:28;;;;;;;29.95;17.95;;;6.80;99.90;;;;;;5046057;28;20189;-87
2021/12/16 05:27:55;;;;;;;29.48;18.08;;;7.20;99.90;;;;;;5043518;28;20228;-87
2021/12/16 05:30:22;;;;;;;29.58;17.70;;;6.70;99.90;;;;;;5043936;28;20583;-87
2021/12/16 05:32:50;;;;;;;31.50;18.27;;;7.00;99.90;;;;;;5043304;28;20374;-87
2021/12/16 05:35:20;;;;;;;26.08;15.20;;;6.70;99.90;;;;;;5042707;28;20314;-85
2021/12/16 05:37:47;;;;;;;28.45;17.25;;;7.00;99.90;;;;;;5043726;28;20224;-86
2021/12/16 05:40:18;;;;;;;29.00;16.00;;;6.80;99.90;;;;;;5043371;28;20215;-87
2021/12/16 05:42:45;;;;;;;24.52;14.77;;;7.00;99.90;;;;;;5043483;28;20195;-87
2021/12/16 05:45:13;;;;;;;30.13;16.10;;;6.90;99.90;;;;;;5042588;28;20204;-88
2021/12/16 05:47:40;;;;;;;26.50;14.93;;;6.80;99.90;;;;;;5044010;28;20732;-87
2021/12/16 05:50:09;;;;;;;24.75;15.77;;;6.90;99.90;;;;;;5051091;28;20268;-87
2021/12/16 05:52:37;;;;;;;26.00;15.07;;;7.40;99.90;;;;;;5053596;28;20207;-86
2021/12/16 05:55:05;;;;;;;26.27;15.43;;;7.00;99.90;;;;;;5053998;28;20261;-86
2021/12/16 05:57:32;;;;;;;24.95;14.82;;;7.60;99.90;;;;;;5053006;28;20751;-86
2021/12/16 05:59:59;;;;;;;24.95;14.65;;;7.60;99.90;;;;;;5053746;28;20214;-88
2021/12/16 06:02:26;;;;;;;26.05;15.13;;;7.00;99.90;;;;;;5047709;28;20275;-88
2021/12/16 06:04:53;;;;;;;26.45;15.23;;;7.40;99.90;;;;;;5055199;28;20267;-89
2021/12/16 06:07:22;;;;;;;25.35;14.15;;;7.20;99.90;;;;;;5051114;28;20286;-88
2021/12/16 06:09:49;;;;;;;24.67;13.90;;;7.20;99.90;;;;;;5044026;28;20274;-88
2021/12/16 06:12:17;;;;;;;26.00;15.82;;;7.20;99.90;;;;;;5051982;28;20231;-88
2021/12/16 06:14:56;;;;;;;23.88;15.18;;;7.10;99.90;;;;;;5051658;28;20258;-89
2021/12/16 06:26:26;;;;;;;27.00;15.10;;;7.30;99.90;;;;;;5045186;28;20557;-87
2021/12/16 06:28:47;;;;;;;25.75;14.27;;;7.20;99.90;;;;;;5041116;28;20233;-88
2021/12/16 06:31:14;;;;;;;26.33;15.52;;;6.60;99.90;;;;;;5041007;28;20207;-87
2021/12/16 06:33:41;;;;;;;24.95;13.23;;;6.90;99.90;;;;;;5041043;28;20211;-87
2021/12/16 06:36:08;;;;;;;26.15;14.90;;;6.80;99.90;;;;;;5045138;28;20741;-86
2021/12/16 06:38:36;;;;;;;25.80;14.95;;;7.00;99.90;;;;;;5049187;28;20286;-87
2021/12/16 06:41:04;;;;;;;22.85;13.27;;;6.90;99.90;;;;;;5047244;28;20234;-86
2021/12/16 06:43:33;;;;;;;28.63;14.80;;;7.00;99.90;;;;;;5044660;28;20239;-86
2021/12/16 06:46:02;;;;;;;28.00;14.35;;;6.60;99.90;;;;;;5042369;28;20246;-87
2021/12/16 06:48:32;;;;;;;24.58;12.68;;;7.00;99.90;;;;;;5041877;28;20228;-87
2021/12/16 06:51:03;;;;;;;26.60;15.38;;;7.00;99.90;;;;;;5042590;28;20218;-87
2021/12/16 06:53:36;;;;;;;24.08;14.60;;;7.10;99.90;;;;;;5040853;28;20226;-82
2021/12/16 06:56:09;;;;;;;26.67;13.85;;;7.00;99.90;;;;;;5043575;28;20302;-87
2021/12/16 06:58:41;;;;;;;21.23;13.18;;;7.20;99.90;;;;;;5054985;28;20295;-87
2021/12/16 07:01:16;;;;;;;24.05;14.63;;;6.80;99.90;;;;;;5049299;28;20226;-89
2021/12/16 07:03:47;;;;;;;23.60;13.43;;;7.50;99.90;;;;;;5052362;28;20190;-89
2021/12/16 07:06:21;;;;;;;24.50;14.82;;;6.90;99.90;;;;;;5037740;28;20608;-79
2021/12/16 07:08:52;;;;;;;25.15;15.02;;;7.30;99.90;;;;;;5043630;28;20222;-78
2021/12/16 07:11:21;;;;;;;22.58;13.10;;;7.40;99.90;;;;;;5042483;28;20234;-79
2021/12/16 07:13:56;;;;;;;24.92;14.88;;;7.30;99.90;;;;;;5040582;28;20706;-79
2021/12/16 07:16:25;;;;;;;24.30;14.50;;;7.20;99.90;;;;;;5047217;28;20211;-77
2021/12/16 07:18:52;;;;;;;26.40;14.60;;;7.40;99.90;;;;;;5045493;28;20242;-80
2021/12/16 07:21:19;;;;;;;20.85;12.15;;;7.10;99.90;;;;;;5038985;28;20218;-77
2021/12/16 07:23:46;;;;;;;21.55;13.77;;;7.20;99.90;;;;;;5038267;28;20290;-78
2021/12/16 07:26:12;;;;;;;23.63;12.55;;;7.20;99.90;;;;;;5038268;28;20253;-77
2021/12/16 07:28:41;;;;;;;24.90;13.10;;;7.40;99.90;;;;;;5039464;28;20234;-79
2021/12/16 07:31:08;;;;;;;22.95;13.73;;;7.20;99.90;;;;;;5040164;28;20652;-78
2021/12/16 07:33:35;;;;;;;24.58;14.13;;;7.30;99.90;;;;;;5037499;28;20675;-77
2021/12/16 07:36:02;;;;;;;23.02;13.63;;;7.20;99.90;;;;;;5039949;28;20237;-80
2021/12/16 07:38:30;;;;;;;22.02;12.65;;;7.40;99.90;;;;;;5081833;22;20230;-83
2021/12/16 07:40:57;;;;;;;23.60;13.38;;;7.30;99.90;;;;;;5063581;28;20230;-82
2021/12/16 07:43:40;;;;;;;28.08;15.13;;;7.30;99.90;;;;;;5062896;28;20206;-82
2021/12/16 07:46:09;;;;;;;27.67;15.02;;;7.30;99.90;;;;;;5063118;28;20349;-82
2021/12/16 07:48:36;;;;;;;23.20;13.60;;;7.30;99.90;;;;;;5066800;28;20686;-81
2021/12/16 07:51:06;;;;;;;24.17;13.50;;;7.30;99.90;;;;;;5065360;28;20207;-82
2021/12/16 07:53:33;;;;;;;26.55;13.70;;;7.60;99.90;;;;;;5065803;28;20210;-82
2021/12/16 07:56:00;;;;;;;20.95;12.55;;;7.70;99.90;;;;;;5061587;28;20223;-80
2021/12/16 07:58:27;;;;;;;23.38;13.27;;;7.80;99.90;;;;;;5065826;28;20241;-82
2021/12/16 08:00:54;;;;;;;27.35;14.35;;;7.80;99.90;;;;;;5066695;28;20213;-82
2021/12/16 08:03:23;;;;;;;19.85;12.25;;;7.70;99.90;;;;;;5064043;28;20268;-81
2021/12/16 08:05:55;;;;;;;20.98;13.07;;;7.60;99.90;;;;;;5061335;28;20214;-82
2021/12/16 08:08:22;;;;;;;29.42;12.75;;;7.70;99.90;;;;;;5061681;28;20326;-81
2021/12/16 08:10:50;;;;;;;22.02;13.73;;;7.50;99.90;;;;;;5061750;28;20219;-82
2021/12/16 08:13:17;;;;;;;26.20;14.52;;;7.30;99.90;;;;;;5061330;28;20592;-81
2021/12/16 08:15:45;;;;;;;22.35;13.13;;;7.60;99.90;;;;;;5061300;28;20250;-81
2021/12/16 08:18:12;;;;;;;20.65;12.35;;;7.50;99.90;;;;;;5062539;28;20261;-81
2021/12/16 08:20:41;;;;;;;22.60;12.57;;;7.60;99.90;;;;;;5060545;28;20600;-81
2021/12/16 08:23:08;;;;;;;23.83;13.57;;;7.70;99.90;;;;;;5061568;28;20279;-82
2021/12/16 08:25:36;;;;;;;21.92;14.30;;;7.80;99.90;;;;;;5061525;28;20207;-84
2021/12/16 08:28:05;;;;;;;21.42;14.13;;;7.70;99.90;;;;;;5061447;28;20319;-82
2021/12/16 08:30:38;;;;;;;21.70;14.40;;;7.70;99.90;;;;;;5061706;28;20302;-84
2021/12/16 08:33:09;;;;;;;27.13;14.55;;;7.70;99.90;;;;;;5063242;28;20258;-82
2021/12/16 08:35:36;;;;;;;21.85;13.15;;;7.60;99.90;;;;;;5069024;28;20226;-81
2021/12/16 08:38:05;;;;;;;21.23;11.80;;;7.70;99.90;;;;;;5070199;28;20237;-82
2021/12/16 08:40:32;;;;;;;18.77;12.38;;;8.00;99.90;;;;;;5069717;28;20222;-81
2021/12/16 08:42:59;;;;;;;18.75;11.57;;;8.00;99.90;;;;;;5067698;28;20231;-83
2021/12/16 08:45:28;;;;;;;21.50;12.70;;;7.60;99.90;;;;;;5061139;28;20208;-83
2021/12/16 08:47:56;;;;;;;18.27;12.30;;;7.90;99.90;;;;;;5065736;28;20230;-82
2021/12/16 08:50:28;;;;;;;24.85;13.88;;;8.00;99.90;;;;;;5070602;28;20297;-82
2021/12/16 08:52:55;;;;;;;20.30;12.40;;;7.90;99.90;;;;;;5070441;28;20259;-83
2021/12/16 08:55:24;;;;;;;18.52;12.02;;;7.80;99.90;;;;;;5063106;28;20254;-82
2021/12/16 08:57:53;;;;;;;22.92;13.40;;;8.20;99.90;;;;;;5062667;28;20234;-82
2021/12/16 09:00:22;;;;;;;21.50;11.80;;;8.10;99.90;;;;;;5063229;28;20203;-83
2021/12/16 09:02:49;;;;;;;21.70;12.43;;;8.40;99.90;;;;;;5062777;28;20290;-82
2021/12/16 09:05:17;;;;;;;20.55;12.32;;;8.20;99.90;;;;;;5063823;28;20271;-83
2021/12/16 09:07:48;;;;;;;20.38;12.32;;;8.20;99.90;;;;;;5062280;28;20254;-84
2021/12/16 09:10:15;;;;;;;21.60;13.15;;;7.90;99.90;;;;;;5062387;28;20196;-84
2021/12/16 09:13:01;;;;;;;19.10;12.00;;;8.00;99.90;;;;;;5061701;28;20207;-83
2021/12/16 09:15:29;;;;;;;19.52;12.30;;;8.10;99.90;;;;;;5064602;28;20252;-83
2021/12/16 09:17:56;;;;;;;18.38;11.55;;;8.10;99.90;;;;;;5071129;28;20230;-83
2021/12/16 09:20:25;;;;;;;20.08;13.32;;;7.90;99.90;;;;;;5071259;28;20223;-82
2021/12/16 09:22:53;;;;;;;23.63;13.60;;;8.20;99.90;;;;;;5070602;28;20310;-83
2021/12/16 09:25:20;;;;;;;19.67;11.95;;;8.00;99.90;;;;;;5062891;28;20318;-85
2021/12/16 09:27:49;;;;;;;24.83;14.10;;;8.10;99.90;;;;;;5066428;28;20319;-84
2021/12/16 09:30:19;;;;;;;18.63;12.77;;;7.90;99.90;;;;;;5070510;28;20212;-82
2021/12/16 09:32:46;;;;;;;20.30;12.23;;;8.00;99.90;;;;;;5071379;28;20219;-82
2021/12/16 09:35:13;;;;;;;20.88;14.25;;;8.10;99.90;;;;;;5062316;28;20246;-82
2021/12/16 09:37:41;;;;;;;20.77;11.93;;;8.20;99.90;;;;;;5060931;28;20231;-83
2021/12/16 09:40:11;;;;;;;21.80;13.85;;;8.00;99.90;;;;;;5061012;28;20214;-84
2021/12/16 09:42:39;;;;;;;19.42;11.93;;;8.50;99.90;;;;;;5065904;28;20192;-83
2021/12/16 09:45:10;;;;;;;20.67;10.55;;;8.70;99.90;;;;;;5064923;28;20210;-83
2021/12/16 09:47:38;;;;;;;25.17;13.25;;;8.20;99.90;;;;;;5061464;28;20297;-85
2021/12/16 09:50:07;;;;;;;18.60;11.73;;;8.50;99.90;;;;;;5061736;28;20648;-85
2021/12/16 09:52:35;;;;;;;18.63;12.60;;;8.50;99.90;;;;;;5061579;28;20250;-82
2021/12/16 09:55:03;;;;;;;24.30;11.88;;;8.40;99.90;;;;;;5061081;28;20210;-84
2021/12/16 09:57:31;;;;;;;19.63;12.15;;;8.40;99.90;;;;;;5060205;28;20231;-83
2021/12/16 09:59:58;;;;;;;17.23;10.90;;;8.40;99.90;;;;;;5060666;28;20302;-84
2021/12/16 10:02:26;;;;;;;21.17;12.35;;;8.70;99.90;;;;;;5060113;28;20215;-84
2021/12/16 10:04:53;;;;;;;22.35;13.60;;;8.80;99.90;;;;;;5060459;28;20202;-83
2021/12/16 10:07:24;;;;;;;21.05;11.52;;;9.00;99.90;;;;;;5074100;28;20342;-83
2021/12/16 10:09:54;;;;;;;25.48;13.18;;;9.00;99.90;;;;;;5073023;28;20254;-82
2021/12/16 10:12:26;;;;;;;24.52;12.93;;;8.90;99.90;;;;;;5072615;28;20210;-81
2021/12/16 10:17:21;;;;;;;20.20;12.00;;;8.90;99.90;;;;;;5070999;28;20188;-82
2021/12/16 10:17:55;;;;;;;23.98;12.35;;;8.50;99.90;;;;;;5067701;28;20231;-81
2021/12/16 10:20:27;;;;;;;28.05;14.52;;;8.70;99.90;;;;;;5062218;28;20192;-83
2021/12/16 10:23:02;;;;;;;21.52;12.02;;;8.60;99.90;;;;;;5060938;28;20281;-83
2021/12/16 10:25:31;;;;;;;24.67;13.48;;;8.30;99.90;;;;;;5062075;28;20255;-83
2021/12/16 10:28:02;;;;;;;23.02;13.18;;;8.00;99.90;;;;;;5060055;28;20695;-83
2021/12/16 10:30:43;;;;;;;21.25;12.95;;;8.30;99.90;;;;;;5063603;28;20272;-82
2021/12/16 10:33:15;;;;;;;18.40;12.07;;;8.70;99.90;;;;;;5060652;28;20197;-83
2021/12/16 10:35:47;;;;;;;21.10;13.13;;;8.70;99.90;;;;;;5059744;28;20539;-86
2021/12/16 10:38:16;;;;;;;23.02;13.18;;;8.70;99.90;;;;;;5060423;28;20274;-83
2021/12/16 10:40:47;;;;;;;20.45;12.80;;;9.00;99.90;;;;;;5059120;28;20246;-83
2021/12/16 10:43:15;;;;;;;21.73;13.10;;;9.00;99.90;;;;;;5060182;28;20299;-83
2021/12/16 10:45:46;;;;;;;21.50;12.25;;;9.10;99.90;;;;;;5063518;28;20234;-83
2021/12/16 10:48:22;;;;;;;19.03;11.80;;;9.20;99.90;;;;;;5062955;28;20258;-83
2021/12/16 10:51:04;;;;;;;23.02;13.90;;;9.30;99.90;;;;;;5063964;28;20516;-82
2021/12/16 10:53:46;;;;;;;23.02;12.43;;;9.30;99.90;;;;;;5063194;28;20279;-82
2021/12/16 10:56:15;;;;;;;18.52;12.27;;;9.20;99.90;;;;;;5063672;28;20226;-82
2021/12/16 10:58:50;;;;;;;25.80;14.40;;;9.10;99.90;;;;;;5063210;28;20254;-82
2021/12/16 11:01:32;;;;;;;19.63;12.13;;;8.70;99.90;;;;;;5063295;28;20273;-82
2021/12/16 11:04:00;;;;;;;24.38;13.50;;;8.70;99.90;;;;;;5063254;28;20279;-83
2021/12/16 11:06:27;;;;;;;23.42;13.43;;;8.40;99.90;;;;;;5062894;28;20203;-82
2021/12/16 11:08:54;;;;;;;23.17;12.80;;;8.40;99.90;;;;;;5063169;28;20775;-82
2021/12/16 11:11:28;;;;;;;24.27;12.55;;;8.50;99.90;;;;;;5066740;28;20221;-83
2021/12/16 11:14:04;;;;;;;19.25;12.02;;;8.80;99.90;;;;;;5062829;28;20242;-84
2021/12/16 11:16:33;;;;;;;19.30;11.07;;;8.90;99.90;;;;;;5064038;28;20228;-84
2021/12/16 11:19:02;;;;;;;21.67;11.85;;;8.80;99.90;;;;;;5066497;28;20279;-87
2021/12/16 11:21:39;;;;;;;25.40;12.68;;;8.30;99.90;;;;;;5066660;28;20274;-84
2021/12/16 11:24:22;;;;;;;25.30;14.85;;;8.30;99.90;;;;;;5068533;28;20203;-84
2021/12/16 11:26:49;;;;;;;20.75;13.45;;;8.60;99.90;;;;;;5065708;28;20202;-85
2021/12/16 11:29:17;;;;;;;21.45;13.00;;;8.10;99.90;;;;;;5068083;28;20302;-86
2021/12/16 11:31:48;;;;;;;22.40;13.25;;;8.60;99.90;;;;;;5069867;28;20321;-86
2021/12/16 11:34:19;;;;;;;22.92;13.82;;;8.60;99.90;;;;;;5069429;28;20637;-86
2021/12/16 11:36:53;;;;;;;27.65;14.00;;;8.40;99.90;;;;;;5064672;28;20226;-85
2021/12/16 11:39:22;;;;;;;20.52;11.70;;;8.10;99.90;;;;;;5064510;28;20612;-86
2021/12/16 11:41:51;;;;;;;20.05;11.98;;;8.10;99.90;;;;;;5064796;28;20278;-85
2021/12/16 11:44:21;;;;;;;27.13;13.85;;;8.50;99.90;;;;;;5066112;28;20210;-81
2021/12/16 11:46:50;;;;;;;21.90;13.45;;;8.50;99.90;;;;;;5066870;28;20347;-81
2021/12/16 11:49:23;;;;;;;23.55;11.48;;;8.50;99.90;;;;;;5070780;28;20333;-81
2021/12/16 11:51:58;;;;;;;22.85;12.00;;;8.50;99.90;;;;;;5066964;28;20241;-82
2021/12/16 11:54:28;;;;;;;25.58;14.00;;;8.80;99.90;;;;;;5069629;28;20194;-81
2021/12/16 11:56:59;;;;;;;23.77;13.40;;;8.50;99.90;;;;;;5069996;28;20234;-83
2021/12/16 11:59:30;;;;;;;26.80;15.15;;;8.20;99.90;;;;;;5069230;28;20256;-81
2021/12/16 12:01:59;;;;;;;25.50;14.63;;;8.50;99.90;;;;;;5076820;28;20192;-82
2021/12/16 12:04:32;;;;;;;28.85;14.10;;;8.30;99.90;;;;;;5072700;28;20208;-84
2021/12/16 12:07:08;;;;;;;22.15;13.50;;;8.50;99.90;;;;;;5067880;28;20203;-85
2021/12/16 12:09:45;;;;;;;19.48;12.77;;;8.40;99.90;;;;;;5064320;28;20248;-84
2021/12/16 12:12:13;;;;;;;23.48;13.27;;;8.60;99.90;;;;;;5062828;28;20668;-84
2021/12/16 12:14:42;;;;;;;22.00;13.65;;;8.80;99.90;;;;;;5062373;28;20219;-86
2021/12/16 12:17:12;;;;;;;24.92;14.43;;;8.80;99.90;;;;;;5062690;28;20226;-85
2021/12/16 12:19:51;;;;;;;24.85;14.13;;;8.90;99.90;;;;;;5062651;28;20682;-85
2021/12/16 12:22:23;;;;;;;21.40;12.88;;;8.80;99.90;;;;;;5063762;28;20259;-86
2021/12/16 12:24:50;;;;;;;20.63;13.43;;;8.80;99.90;;;;;;5065881;28;20236;-86
2021/12/16 12:27:19;;;;;;;27.17;14.45;;;9.10;99.90;;;;;;5068966;28;20274;-86
2021/12/16 12:29:49;;;;;;;25.60;13.60;;;9.10;99.90;;;;;;5073236;28;20207;-86
2021/12/16 12:32:19;;;;;;;25.27;14.77;;;9.20;99.90;;;;;;5067492;28;20205;-83
2021/12/16 12:34:51;;;;;;;30.10;14.40;;;9.10;99.90;;;;;;5062716;28;20189;-87
2021/12/16 12:37:20;;;;;;;21.90;13.40;;;9.10;99.90;;;;;;5062935;28;20254;-85
2021/12/16 12:39:51;;;;;;;22.45;14.02;;;9.50;99.90;;;;;;5063232;28;20231;-85
2021/12/16 12:42:18;;;;;;;21.00;13.32;;;9.50;99.90;;;;;;5061316;28;20691;-84
2021/12/16 12:44:46;;;;;;;19.30;13.60;;;9.20;99.90;;;;;;5061872;28;20218;-84
2021/12/16 12:47:17;;;;;;;20.85;13.35;;;9.10;99.90;;;;;;5062200;28;20565;-84
2021/12/16 12:49:45;;;;;;;20.50;13.55;;;9.00;99.90;;;;;;5065325;28;20188;-84
2021/12/16 12:52:15;;;;;;;26.45;15.95;;;9.20;99.90;;;;;;5066364;28;20595;-84
2021/12/16 12:54:45;;;;;;;26.25;14.73;;;9.10;99.90;;;;;;5062439;28;20332;-85
2021/12/16 12:57:22;;;;;;;24.33;14.27;;;9.10;99.90;;;;;;5065589;28;20228;-83
2021/12/16 12:59:49;;;;;;;22.52;13.13;;;9.10;99.90;;;;;;5062930;28;20193;-83
2021/12/16 13:02:19;;;;;;;23.23;14.95;;;9.10;99.90;;;;;;5063603;28;20218;-88
2021/12/16 13:04:51;;;;;;;23.23;13.80;;;9.10;99.90;;;;;;5065015;28;20217;-84
2021/12/16 13:07:20;;;;;;;21.90;14.80;;;9.10;99.90;;;;;;5062961;28;20256;-86
2021/12/16 13:09:49;;;;;;;20.17;13.60;;;9.10;99.90;;;;;;5070234;28;20232;-84
2021/12/16 13:12:37;;;;;;;27.08;15.15;;;9.10;99.90;;;;;;5071406;28;20275;-84
2021/12/16 13:15:32;;;;;;;24.88;14.52;;;9.10;99.90;;;;;;5065858;28;20667;-85
2021/12/16 13:24:06;;;;;;;25.00;13.90;;;9.20;99.90;;;;;;5061919;28;20190;-81
2021/12/16 13:26:41;;;;;;;26.13;14.65;;;9.20;99.90;;;;;;5062395;28;20541;-80
2021/12/16 13:29:16;;;;;;;26.00;14.85;;;9.20;99.90;;;;;;5064454;28;20255;-86
2021/12/16 13:31:58;;;;;;;21.50;13.73;;;9.30;99.90;;;;;;5063914;28;20639;-86
2021/12/16 13:34:36;;;;;;;20.92;13.32;;;9.50;99.90;;;;;;5063855;28;20203;-86
2021/12/16 13:37:11;;;;;;;22.55;12.65;;;9.80;99.90;;;;;;5062684;28;20232;-86
2021/12/16 13:39:46;;;;;;;30.67;14.67;;;9.80;99.90;;;;;;5062778;28;20207;-86
2021/12/16 13:42:15;;;;;;;24.02;13.65;;;9.70;99.90;;;;;;5090799;22;21098;-83
2021/12/16 13:44:56;;;;;;;23.03;13.23;;;9.70;99.90;;;;;;5066851;28;20231;-85
2021/12/16 13:47:52;;;;;;;22.60;13.68;;;9.60;99.90;;;;;;5065331;28;20467;-85
2021/12/16 14:02:35;;;;;;;21.45;13.25;;;9.20;99.90;;;;;;5040946;28;20238;-85
2021/12/16 14:05:17;;;;;;;21.13;12.93;;;9.20;99.90;;;;;;5063768;28;20187;-85
2021/12/16 14:07:55;;;;;;;23.50;13.63;;;9.00;99.90;;;;;;5065404;28;20191;-85
2021/12/16 14:10:34;;;;;;;21.70;13.30;;;8.90;99.90;;;;;;5065523;28;20204;-85
2021/12/16 14:16:29;;;;;;;20.13;12.55;;;8.80;99.90;;;;;;5067673;28;20205;-83
2021/12/16 14:25:10;;;;;;;23.60;14.02;;;9.30;99.90;;;;;;5063115;28;20194;-80
2021/12/16 14:36:48;;;;;;;19.00;13.15;;;8.90;99.90;;;;;;5078120;28;20193;-80
2021/12/16 14:48:10;;;;;;;21.10;11.93;;;8.60;99.90;;;;;;5035332;28;20192;-80
2021/12/16 14:50:40;;;;;;;20.50;12.70;;;8.70;99.90;;;;;;5062454;28;20204;-82
2021/12/16 14:53:23;;;;;;;19.92;11.68;;;8.90;99.90;;;;;;5061996;28;20722;-82
2021/12/16 14:55:55;;;;;;;23.70;13.45;;;8.70;99.90;;;;;;5062674;28;20193;-82
2021/12/16 14:58:23;;;;;;;21.65;14.13;;;8.80;99.90;;;;;;5062551;28;20272;-81
2021/12/16 15:00:53;;;;;;;21.20;13.77;;;8.70;99.90;;;;;;5064920;28;20214;-78
2021/12/16 15:03:24;;;;;;;20.23;13.00;;;8.70;99.90;;;;;;5061294;28;20326;-80
2021/12/16 15:06:07;;;;;;;27.98;16.85;;;8.70;99.90;;;;;;5068343;28;20214;-79
2021/12/16 15:08:49;;;;;;;19.08;13.38;;;8.80;99.90;;;;;;5069476;28;20239;-84
2021/12/16 15:11:30;;;;;;;21.00;14.45;;;8.70;99.90;;;;;;5070012;28;20196;-81
2021/12/16 15:14:08;;;;;;;19.20;12.27;;;8.70;99.90;;;;;;5070335;28;20210;-80
2021/12/16 15:37:06;;;;;;;19.48;12.50;;;8.60;99.90;;;;;;5008985;28;20277;-83
2021/12/16 15:40:07;;;;;;;23.65;14.40;;;8.20;99.90;;;;;;5067994;28;20264;-82
2021/12/16 15:42:49;;;;;;;21.67;13.50;;;8.40;99.90;;;;;;5069660;28;20264;-81